createdAt,value
2019-05-20T00:01:52.712Z,17.69
2019-05-20T00:04:56.410Z,17.71
2019-05-20T00:08:00.037Z,17.76
2019-05-20T00:11:03.873Z,17.84
2019-05-20T00:14:07.528Z,17.84
2019-05-20T00:17:11.308Z,17.76
2019-05-20T00:20:15.064Z,17.74
2019-05-20T00:23:18.691Z,17.66
2019-05-20T00:26:22.398Z,17.61
2019-05-20T00:29:29.081Z,17.48
2019-05-20T00:32:41.358Z,17.52
2019-05-20T00:35:39.678Z,17.39
2019-05-20T00:38:46.556Z,17.18
2019-05-20T00:41:57.945Z,17.25
2019-05-20T00:45:05.924Z,17.02
2019-05-20T00:48:15.432Z,17.07
2019-05-20T00:51:19.060Z,16.99
2019-05-20T00:54:22.793Z,17.02
2019-05-20T00:57:26.402Z,16.96
2019-05-20T01:00:32.474Z,16.92
2019-05-20T01:03:35.853Z,16.98
2019-05-20T01:06:39.469Z,16.92
2019-05-20T01:09:47.497Z,16.80
2019-05-20T01:12:50.256Z,16.78
2019-05-20T01:15:53.918Z,16.79
2019-05-20T01:18:59.094Z,16.79
2019-05-20T01:22:02.720Z,16.76
2019-05-20T01:25:06.944Z,16.83
2019-05-20T01:28:10.567Z,16.70
2019-05-20T01:31:14.306Z,16.42
2019-05-20T01:34:17.998Z,16.38
2019-05-20T01:37:21.665Z,16.52
2019-05-20T01:40:25.297Z,16.71
2019-05-20T01:43:30.520Z,16.73
2019-05-20T01:46:35.734Z,16.74
2019-05-20T01:49:40.914Z,16.58
2019-05-20T01:52:44.537Z,16.43
2019-05-20T01:55:49.851Z,16.36
2019-05-20T01:58:55.097Z,16.25
2019-05-20T02:02:01.451Z,16.11
2019-05-20T02:05:06.635Z,16.10
2019-05-20T02:08:10.228Z,16.02
2019-05-20T02:11:13.921Z,16.04
2019-05-20T02:14:24.894Z,16.08
2019-05-20T02:17:30.067Z,16.13
2019-05-20T02:20:33.743Z,15.98
2019-05-20T02:23:37.382Z,15.87
2019-05-20T02:26:42.603Z,16.01
2019-05-20T02:29:46.236Z,16.06
2019-05-20T02:32:49.871Z,16.06
2019-05-20T02:35:55.163Z,16.10
2019-05-20T02:39:00.394Z,15.99
2019-05-20T02:42:07.096Z,15.91
2019-05-20T02:45:11.030Z,15.89
2019-05-20T02:48:14.704Z,15.73
2019-05-20T02:51:22.788Z,15.73
2019-05-20T02:54:28.087Z,15.67
2019-05-20T02:57:33.303Z,15.59
2019-05-20T03:00:39.356Z,15.52
2019-05-20T03:03:42.862Z,15.37
2019-05-20T03:06:46.430Z,15.40
2019-05-20T03:09:51.697Z,15.36
2019-05-20T03:12:56.841Z,15.29
2019-05-20T03:16:02.752Z,15.27
2019-05-20T03:19:06.322Z,15.30
2019-05-20T03:22:09.861Z,15.29
2019-05-20T03:25:17.764Z,15.15
2019-05-20T03:28:22.849Z,15.12
2019-05-20T03:31:29.256Z,15.09
2019-05-20T03:34:46.608Z,15.15
2019-05-20T03:37:38.362Z,15.27
2019-05-20T03:40:44.495Z,15.20
2019-05-20T03:43:48.116Z,15.34
2019-05-20T03:46:53.500Z,15.30
2019-05-20T03:49:57.063Z,15.42
2019-05-20T03:53:02.322Z,15.18
2019-05-20T03:56:05.934Z,15.25
2019-05-20T03:59:09.478Z,15.32
2019-05-20T04:02:14.359Z,15.45
2019-05-20T04:05:18.256Z,15.58
2019-05-20T04:08:22.017Z,15.36
2019-05-20T04:11:27.701Z,15.29
2019-05-20T04:14:32.853Z,15.59
2019-05-20T04:17:36.396Z,15.83
2019-05-20T04:20:42.451Z,16.06
2019-05-20T04:23:50.816Z,15.72
2019-05-20T04:26:54.624Z,15.53
2019-05-20T04:29:58.348Z,15.62
2019-05-20T04:33:02.049Z,15.90
2019-05-20T04:36:07.282Z,16.53
2019-05-20T04:39:10.955Z,17.12
2019-05-20T04:42:16.150Z,17.88
2019-05-20T04:45:19.808Z,17.97
2019-05-20T04:48:25.345Z,18.52
2019-05-20T04:51:29.076Z,18.66
2019-05-20T04:54:32.772Z,18.73
2019-05-20T04:57:36.450Z,18.69
2019-05-20T05:00:49.131Z,19.51
2019-05-20T05:03:52.796Z,20.16
2019-05-20T05:06:56.473Z,20.29
2019-05-20T05:10:03.165Z,20.74
2019-05-20T05:13:06.955Z,19.51
2019-05-20T05:16:10.666Z,19.54
2019-05-20T05:19:14.424Z,19.68
2019-05-20T05:22:18.130Z,19.73
2019-05-20T05:25:22.064Z,19.53
2019-05-20T05:28:25.989Z,18.82
2019-05-20T05:31:29.645Z,18.66
2019-05-20T05:34:33.283Z,18.94
2019-05-20T05:37:36.904Z,18.55
2019-05-20T05:40:40.715Z,18.37
2019-05-20T05:43:44.329Z,18.38
2019-05-20T05:46:48.007Z,18.13
2019-05-20T05:49:51.719Z,18.69
2019-05-20T05:52:55.477Z,19.29
2019-05-20T05:55:59.116Z,19.48
2019-05-20T05:59:02.777Z,19.48
2019-05-20T06:02:06.419Z,19.44
2019-05-20T06:05:10.958Z,20.03
2019-05-20T06:08:14.737Z,19.90
2019-05-20T06:11:18.382Z,19.68
2019-05-20T06:14:22.037Z,19.56
2019-05-20T06:17:25.640Z,19.89
2019-05-20T06:20:29.332Z,19.57
2019-05-20T06:23:32.957Z,19.83
2019-05-20T06:26:37.204Z,20.66
2019-05-20T06:29:40.839Z,20.95
2019-05-20T06:32:44.640Z,21.35
2019-05-20T06:35:49.074Z,21.93
2019-05-20T06:38:56.825Z,22.01
2019-05-20T06:42:00.463Z,21.47
2019-05-20T06:45:06.256Z,21.24
2019-05-20T06:48:09.950Z,21.09
2019-05-20T06:51:13.605Z,20.34
2019-05-20T06:54:17.336Z,20.25
2019-05-20T06:57:23.856Z,19.79
2019-05-20T07:00:34.428Z,20.67
2019-05-20T07:03:38.065Z,20.92
2019-05-20T07:06:46.535Z,20.99
2019-05-20T07:09:47.265Z,20.77
2019-05-20T07:12:50.869Z,20.97
2019-05-20T07:15:54.552Z,21.21
2019-05-20T07:18:58.210Z,21.18
2019-05-20T07:22:01.851Z,21.47
2019-05-20T07:25:06.854Z,21.89
2019-05-20T07:28:10.556Z,23.15
2019-05-20T07:31:14.221Z,23.58
2019-05-20T07:34:18.117Z,23.84
2019-05-20T07:37:21.882Z,23.46
2019-05-20T07:40:32.593Z,24.68
2019-05-20T07:43:36.278Z,25.29
2019-05-20T07:46:40.105Z,25.96
2019-05-20T07:49:44.271Z,26.41
2019-05-20T07:52:48.089Z,25.52
2019-05-20T07:55:54.804Z,25.80
2019-05-20T07:59:01.518Z,25.66
2019-05-20T08:02:05.269Z,25.19
2019-05-20T08:05:09.998Z,26.40
2019-05-20T08:08:14.108Z,26.09
2019-05-20T08:11:17.935Z,26.66
2019-05-20T08:14:21.747Z,25.82
2019-05-20T08:17:25.625Z,25.26
2019-05-20T08:20:29.284Z,25.06
2019-05-20T08:23:33.117Z,25.15
2019-05-20T08:26:36.989Z,25.63
2019-05-20T08:29:40.602Z,26.28
2019-05-20T08:32:44.265Z,24.88
2019-05-20T08:35:47.867Z,25.45
2019-05-20T08:38:51.670Z,24.55
2019-05-20T08:41:55.313Z,25.48
2019-05-20T08:44:58.951Z,25.14
2019-05-20T08:48:02.594Z,26.34
2019-05-20T08:51:06.235Z,26.41
2019-05-20T08:54:09.904Z,27.77
2019-05-20T08:57:13.682Z,27.69
2019-05-20T09:00:23.975Z,27.63
2019-05-20T09:03:30.346Z,26.81
2019-05-20T09:06:32.924Z,25.32
2019-05-20T09:09:36.662Z,24.48
2019-05-20T09:12:40.344Z,24.62
2019-05-20T09:15:45.471Z,24.07
2019-05-20T09:18:49.373Z,24.68
2019-05-20T09:21:56.818Z,25.54
2019-05-20T09:25:00.444Z,25.54
2019-05-20T09:28:04.252Z,25.72
2019-05-20T09:31:08.802Z,26.13
2019-05-20T09:34:12.411Z,26.77
2019-05-20T09:37:16.076Z,27.50
2019-05-20T09:40:25.410Z,27.44
2019-05-20T09:43:29.057Z,26.12
2019-05-20T09:46:32.704Z,25.98
2019-05-20T09:49:36.405Z,25.74
2019-05-20T09:52:40.141Z,24.97
2019-05-20T09:55:43.818Z,25.43
2019-05-20T09:58:47.454Z,25.18
2019-05-20T10:01:51.180Z,24.95
2019-05-20T10:04:54.804Z,24.80
2019-05-20T10:07:59.330Z,24.60
2019-05-20T10:11:02.954Z,24.88
2019-05-20T10:14:06.691Z,25.17
2019-05-20T10:17:10.299Z,25.12
2019-05-20T10:20:15.201Z,24.60
2019-05-20T10:23:18.832Z,24.74
2019-05-20T10:26:22.490Z,24.34
2019-05-20T10:29:26.125Z,24.76
2019-05-20T10:32:29.802Z,24.55
2019-05-20T10:35:33.430Z,24.94
2019-05-20T10:38:54.955Z,24.64
2019-05-20T10:41:42.504Z,24.32
2019-05-20T10:44:46.164Z,24.07
2019-05-20T10:47:49.876Z,24.04
2019-05-20T10:50:53.491Z,23.70
2019-05-20T10:53:57.150Z,23.95
2019-05-20T10:57:00.816Z,23.69
2019-05-20T11:00:08.816Z,24.77
2019-05-20T11:03:12.437Z,24.41
2019-05-20T11:06:16.138Z,24.28
2019-05-20T11:09:19.745Z,25.10
2019-05-20T11:12:23.484Z,24.53
2019-05-20T11:15:27.147Z,24.81
2019-05-20T11:18:30.837Z,24.35
2019-05-20T11:21:34.529Z,24.16
2019-05-20T11:24:38.275Z,24.28
2019-05-20T11:27:41.915Z,24.51
2019-05-20T11:30:45.539Z,24.47
2019-05-20T11:33:49.208Z,24.89
2019-05-20T11:36:52.852Z,24.90
2019-05-20T11:39:56.536Z,24.31
2019-05-20T11:43:00.155Z,24.46
2019-05-20T11:46:03.906Z,24.27
2019-05-20T11:49:07.550Z,23.96
2019-05-20T11:52:11.254Z,24.20
2019-05-20T11:55:14.994Z,23.76
2019-05-20T11:58:18.652Z,23.90
2019-05-20T12:01:22.356Z,24.27
2019-05-20T12:04:25.952Z,23.39
2019-05-20T12:07:29.618Z,23.17
2019-05-20T12:10:33.317Z,23.16
2019-05-20T12:13:36.951Z,23.21
2019-05-20T12:16:40.789Z,23.28
2019-05-20T12:19:44.416Z,23.00
2019-05-20T12:22:49.782Z,23.00
2019-05-20T12:25:53.406Z,22.98
2019-05-20T12:28:58.903Z,22.91
2019-05-20T12:32:03.641Z,23.13
2019-05-20T12:35:08.018Z,22.99
2019-05-20T12:38:13.381Z,22.83
2019-05-20T12:41:17.013Z,22.61
2019-05-20T12:44:20.705Z,22.64
2019-05-20T12:47:24.329Z,22.47
2019-05-20T12:50:28.033Z,22.35
2019-05-20T12:53:31.717Z,22.24
2019-05-20T12:56:35.587Z,22.00
2019-05-20T12:59:39.269Z,22.15
2019-05-20T13:02:42.889Z,21.94
2019-05-20T13:05:46.573Z,22.05
2019-05-20T13:08:51.793Z,22.17
2019-05-20T13:11:55.517Z,21.87
2019-05-20T13:14:59.160Z,21.80
2019-05-20T13:18:02.842Z,22.01
2019-05-20T13:21:06.492Z,23.10
2019-05-20T13:24:10.167Z,23.50
2019-05-20T13:27:15.574Z,23.20
2019-05-20T13:30:20.699Z,24.87
2019-05-20T13:33:24.265Z,27.24
2019-05-20T13:36:27.979Z,28.32
2019-05-20T13:39:31.612Z,27.76
2019-05-20T13:42:36.911Z,26.67
2019-05-20T13:45:40.603Z,25.99
2019-05-20T13:48:44.286Z,24.32
2019-05-20T13:51:48.042Z,24.25
2019-05-20T13:54:51.728Z,23.36
2019-05-20T13:57:55.471Z,23.01
2019-05-20T14:00:59.361Z,22.98
2019-05-20T14:04:04.654Z,22.71
2019-05-20T14:07:08.269Z,22.52
2019-05-20T14:10:12.465Z,22.33
2019-05-20T14:13:16.113Z,22.62
2019-05-20T14:16:19.763Z,22.58
2019-05-20T14:19:29.345Z,22.33
2019-05-20T14:22:30.309Z,22.71
2019-05-20T14:25:33.973Z,22.73
2019-05-20T14:28:37.642Z,22.69
2019-05-20T14:31:42.513Z,22.30
2019-05-20T14:34:46.200Z,22.43
2019-05-20T14:37:49.791Z,22.28
2019-05-20T14:40:55.350Z,22.61
2019-05-20T14:44:00.484Z,23.04
2019-05-20T14:47:04.146Z,23.32
2019-05-20T14:50:14.631Z,23.16
2019-05-20T14:53:19.778Z,22.89
2019-05-20T14:56:31.864Z,22.45
2019-05-20T14:59:43.523Z,22.33
2019-05-20T15:02:47.229Z,22.69
2019-05-20T15:05:51.201Z,22.67
2019-05-20T15:08:55.286Z,23.14
2019-05-20T15:11:58.900Z,23.19
2019-05-20T15:15:02.643Z,22.91
2019-05-20T15:18:06.346Z,23.06
2019-05-20T15:21:10.008Z,23.39
2019-05-20T15:24:13.717Z,22.75
2019-05-20T15:27:17.412Z,22.56
2019-05-20T15:30:21.167Z,22.26
2019-05-20T15:33:24.872Z,22.07
2019-05-20T15:36:28.495Z,22.17
2019-05-20T15:39:32.183Z,22.02
2019-05-20T15:42:35.827Z,22.44
2019-05-20T15:45:39.450Z,22.73
2019-05-20T15:48:43.252Z,22.36
2019-05-20T15:51:46.901Z,21.99
2019-05-20T15:54:51.860Z,22.22
2019-05-20T15:57:55.482Z,22.00
2019-05-20T16:00:59.166Z,22.01
2019-05-20T16:04:02.818Z,22.02
2019-05-20T16:07:06.540Z,22.06
2019-05-20T16:10:10.292Z,21.89
2019-05-20T16:13:14.018Z,21.83
2019-05-20T16:16:17.634Z,21.39
2019-05-20T16:19:21.360Z,21.58
2019-05-20T16:22:25.035Z,21.49
2019-05-20T16:25:28.781Z,21.53
2019-05-20T16:28:32.479Z,21.55
2019-05-20T16:31:36.181Z,21.63
2019-05-20T16:34:39.808Z,21.56
2019-05-20T16:37:43.484Z,21.40
2019-05-20T16:40:47.159Z,21.78
2019-05-20T16:43:51.079Z,22.10
2019-05-20T16:46:54.708Z,22.04
2019-05-20T16:50:01.614Z,22.04
2019-05-20T16:53:08.393Z,21.64
2019-05-20T16:56:20.728Z,21.69
2019-05-20T16:59:24.382Z,21.91
2019-05-20T17:02:30.278Z,21.81
2019-05-20T17:05:34.162Z,21.77
2019-05-20T17:08:37.770Z,21.73
2019-05-20T17:11:41.384Z,21.38
2019-05-20T17:14:45.110Z,21.36
2019-05-20T17:17:48.851Z,21.18
2019-05-20T17:20:52.675Z,21.01
2019-05-20T17:23:57.810Z,20.32
2019-05-20T17:27:01.443Z,20.04
2019-05-20T17:30:09.583Z,19.40
2019-05-20T17:33:15.932Z,19.13
2019-05-20T17:36:19.608Z,19.06
2019-05-20T17:39:23.350Z,18.99
2019-05-20T17:42:27.136Z,18.91
2019-05-20T17:45:30.805Z,18.79
2019-05-20T17:48:34.801Z,18.68
2019-05-20T17:51:38.861Z,18.62
2019-05-20T17:54:42.513Z,18.66
2019-05-20T17:57:46.238Z,18.55
2019-05-20T18:01:14.229Z,18.47
2019-05-20T18:04:07.382Z,18.49
2019-05-20T18:07:18.841Z,18.56
2019-05-20T18:10:23.767Z,18.52
2019-05-20T18:13:27.565Z,18.59
2019-05-20T18:16:31.349Z,18.59
2019-05-20T18:19:34.972Z,18.47
2019-05-20T18:22:38.730Z,18.36
2019-05-20T18:25:42.506Z,18.22
2019-05-20T18:28:47.899Z,18.28
2019-05-20T18:31:56.075Z,18.30
2019-05-20T18:34:59.685Z,18.43
2019-05-20T18:38:03.875Z,18.50
2019-05-20T18:41:07.581Z,18.50
2019-05-20T18:44:13.296Z,18.53
2019-05-20T18:47:16.588Z,18.14
2019-05-20T18:50:20.396Z,17.81
2019-05-20T18:53:24.088Z,17.81
2019-05-20T18:56:27.847Z,17.70
2019-05-20T18:59:31.614Z,17.40
2019-05-20T19:02:35.280Z,17.25
2019-05-20T19:05:40.660Z,16.97
2019-05-20T19:09:04.528Z,16.95
2019-05-20T19:12:10.576Z,16.92
2019-05-20T19:15:19.002Z,16.80
2019-05-20T19:18:24.150Z,16.95
2019-05-20T19:21:27.834Z,16.92
2019-05-20T19:24:31.525Z,16.76
2019-05-20T19:27:35.300Z,16.61
2019-05-20T19:30:39.076Z,16.52
2019-05-20T19:33:42.764Z,16.44
2019-05-20T19:36:46.512Z,16.48
2019-05-20T19:39:50.240Z,16.58
2019-05-20T19:42:56.018Z,16.52
2019-05-20T19:45:59.349Z,16.38
2019-05-20T19:49:05.725Z,16.52
2019-05-20T19:52:09.662Z,16.40
2019-05-20T19:55:13.455Z,16.62
2019-05-20T19:58:17.174Z,16.78
2019-05-20T20:01:20.788Z,16.83
2019-05-20T20:04:24.443Z,16.93
2019-05-20T20:07:28.879Z,16.99
2019-05-20T20:10:32.554Z,16.98
2019-05-20T20:13:36.227Z,17.04
2019-05-20T20:16:39.903Z,17.01
2019-05-20T20:19:43.603Z,17.01
2019-05-20T20:22:47.271Z,17.02
2019-05-20T20:25:50.902Z,16.99
2019-05-20T20:28:54.637Z,17.10
2019-05-20T20:31:58.321Z,17.13
2019-05-20T20:35:02.195Z,17.17
2019-05-20T20:38:05.843Z,16.94
2019-05-20T20:41:09.519Z,16.98
2019-05-20T20:44:13.142Z,17.01
2019-05-20T20:47:16.811Z,17.00
2019-05-20T20:50:20.497Z,17.03
2019-05-20T20:53:24.150Z,17.06
2019-05-20T20:56:27.776Z,17.08
2019-05-20T20:59:31.521Z,17.10
2019-05-20T21:02:35.170Z,17.05
2019-05-20T21:05:38.872Z,17.09
2019-05-20T21:08:42.492Z,17.07
2019-05-20T21:11:46.155Z,17.12
2019-05-20T21:14:49.797Z,17.08
2019-05-20T21:17:53.463Z,17.14
2019-05-20T21:20:57.082Z,17.20
2019-05-20T21:24:00.744Z,17.10
2019-05-20T21:27:04.698Z,17.06
2019-05-20T21:30:09.698Z,16.96
2019-05-20T21:33:13.323Z,16.70
2019-05-20T21:36:17.038Z,16.88
2019-05-20T21:39:28.461Z,16.94
2019-05-20T21:42:29.477Z,17.02
2019-05-20T21:45:40.644Z,16.83
2019-05-20T21:48:44.304Z,16.84
2019-05-20T21:51:47.932Z,16.99
2019-05-20T21:54:54.592Z,17.01
2019-05-20T21:57:58.208Z,17.06
2019-05-20T22:01:02.205Z,17.14
2019-05-20T22:04:08.071Z,17.08
2019-05-20T22:07:11.730Z,16.83
2019-05-20T22:10:19.754Z,16.92
2019-05-20T22:13:23.406Z,17.02
2019-05-20T22:16:29.697Z,16.61
2019-05-20T22:19:32.439Z,16.77
2019-05-20T22:22:43.933Z,16.90
2019-05-20T22:25:50.705Z,16.81
2019-05-20T22:28:54.397Z,16.90
2019-05-20T22:32:22.189Z,16.93
2019-05-20T22:35:27.494Z,16.75
2019-05-20T22:38:31.959Z,16.71
2019-05-20T22:41:38.548Z,16.45
2019-05-20T22:44:42.244Z,16.27
2019-05-20T22:47:45.869Z,16.13
2019-05-20T22:50:49.708Z,16.11
2019-05-20T22:53:53.335Z,15.95
2019-05-20T22:56:59.972Z,15.84
2019-05-20T23:00:04.754Z,15.89
2019-05-20T23:03:08.439Z,16.01
2019-05-20T23:06:12.066Z,15.96
2019-05-20T23:13:39.881Z,15.85
2019-05-20T23:16:14.843Z,15.62
2019-05-20T23:19:18.501Z,15.64
2019-05-20T23:22:21.868Z,15.62
2019-05-20T23:25:25.471Z,15.56
2019-05-20T23:28:30.600Z,15.44
2019-05-20T23:31:34.261Z,15.41
2019-05-20T23:34:37.860Z,15.34
2019-05-20T23:37:41.402Z,15.19
2019-05-20T23:40:44.970Z,15.18
2019-05-20T23:43:48.886Z,15.08
2019-05-20T23:46:52.449Z,14.97
2019-05-20T23:49:55.997Z,14.86
2019-05-20T23:53:01.175Z,14.80
2019-05-20T23:56:04.892Z,14.81
2019-05-20T23:59:08.511Z,14.76
